Aérodrome :
LOGIN :

S'inscrire | Disclaimer

   EN    FR    IT 

 










Légende :    VFR   VFR Marginal   IFR   IFR Intensif   IFR Très Intensif
Visi : 
Plafond : 
>= 8 km
>= 3000ft
5 à 8 km
1000 à 3000 ft
1500m à 5 km
500 à 1000 ft
800 à 1500m
200 à 500 ft
< 800m
< 200 ft
Symboles :   Orages  Brouillard  Fortes neiges  Fortes précipitations  Vent > 20 kt
SIGMETs :   Divers  Orages  Givrage  Turbulence  Onde Orograph.  Cendres Volcan.







- Altitude de l'aérodrome : 433 ft
- Code IATA : CCF
- Voir les cartes d'approche


LFMK - Carcassonne

DERNIER METAR :
  • 230230Z AUTO 28011KT 9999 SCT040 OVC056 21/16 Q1019 NOSIG

METARs EXPIRÉS :
  • 230200Z AUTO 28009KT 9999 OVC056 21/16 Q1019
  • 230130Z AUTO 28010KT 9999 OVC058 21/16 Q1019

TAF TAF LFMK
Valide du 23 à 03h jusqu'au 24 à 03h UTC


230200Z 2303/2403 29010KT 9999 OVC020
BECMG 2310/2312 CAVOK
TEMPO 2316/2319 SHRA BKN030TCU
BECMG 2400/2402 OVC015
Pas de NOTAMs connus pour ce terrain.



MET'MAP, la Météo Aéronautique d'un coup d'oeil ! - Copyright ORBIFLY Décembre 2007 - Disclaimer

ORBIFLY MET'MAP TEAM :

Programmation & Développement : Alexandra Zaïnal
Conception & Développement : Baudouin d'Aumeries
Co-Programmation & Développement : Marc-Olivier Méhu
Soutien technique & logistique : Manuel Goepfert

Contact : metmap@orbifly.com




SOURCES & CREDITS :

   NOAA